Atilio Vivacqua, Brazil
Current Conditions -  °F | °C
As of 1:00 PM on Wednesday 26 Nov 2014 (Local Time) from SBCP Reporting Station
Clear Clear  
Wind Chill: 91°   Ceiling: Unl
Heat Index: 91°   Visibility: 6mi
Dew Point: 61°   Wind: 12mph
Humidity: 36%   Direction: 60°ENE
Pressure: 29.8"   Gusts: NA
Location:  20.91°S, 41.2°W
Report Text: SBCP 261500Z 06010KT CAVOK 33/16 Q1009
Loading
Personal Weather Stations






























Interactive Weather Map New forecast layout! Learn more

10-Day Weather Forecast

Advertisements
Track Severe Weather on mobile